Time;durP1;ratioP1;P1;durP2;ratioP2;P2;SDS_P1;SDS_P2;PMS_P1;PMS_P2;Temp;Humidity;BMP_temperature;BMP_pressure;BME280_temperature;BME280_humidity;BME280_pressure;Samples;Min_cycle;Max_cycle;Signal;HPM_P1;HPM_P2
2023/05/15 00:00:22;;;;;;;;;;;;;;;21.90;43.76;100752.53;5003791;28;4477;-67
2023/05/15 00:02:49;;;;;;;;;;;;;;;21.90;43.55;100752.53;5006116;28;4060;-67
2023/05/15 00:05:15;;;;;;;;;;;;;;;21.89;43.59;100751.75;5009548;28;4312;-67
2023/05/15 00:07:42;;;;;;;;;;;;;;;21.90;43.60;100752.53;5004580;28;4134;-67
2023/05/15 00:10:08;;;;;;;;;;;;;;;21.88;43.76;100743.78;5006847;28;4112;-67
2023/05/15 00:12:35;;;;;;;;;;;;;;;21.88;43.66;100743.78;5008092;28;4425;-67
2023/05/15 00:15:01;;;;;;;;;;;;;;;21.88;43.66;100740.91;5004131;28;4158;-67
2023/05/15 00:17:28;;;;;;;;;;;;;;;21.87;43.60;100730.75;5005751;28;4230;-67
2023/05/15 00:19:56;;;;;;;;;;;;;;;21.88;43.76;100738.03;5007877;28;4322;-67
2023/05/15 00:22:23;;;;;;;;;;;;;;;21.87;43.57;100736.53;5009510;28;4378;-67
2023/05/15 00:24:49;;;;;;;;;;;;;;;21.86;43.58;100729.28;5007306;28;4491;-68
2023/05/15 00:27:15;;;;;;;;;;;;;;;21.84;43.72;100732.84;5007125;28;4231;-68
2023/05/15 00:29:42;;;;;;;;;;;;;;;21.86;43.82;100735.06;5007326;28;4342;-67
2023/05/15 00:32:08;;;;;;;;;;;;;;;21.84;43.96;100721.31;5004771;28;4417;-67
2023/05/15 00:34:34;;;;;;;;;;;;;;;21.83;43.67;100713.31;5007804;28;4961;-67
2023/05/15 00:37:02;;;;;;;;;;;;;;;21.83;43.63;100725.59;4997156;28;4087;-67
2023/05/15 00:39:30;;;;;;;;;;;;;;;21.82;43.68;100727.00;5014471;28;4525;-67
2023/05/15 00:41:56;;;;;;;;;;;;;;;21.83;43.86;100710.44;5006845;28;4076;-68
2023/05/15 00:44:24;;;;;;;;;;;;;;;21.82;43.71;100708.97;5005251;28;4056;-67
2023/05/15 00:46:51;;;;;;;;;;;;;;;21.82;43.64;100701.03;5007861;28;4321;-67
2023/05/15 00:49:17;;;;;;;;;;;;;;;21.82;43.68;100692.41;5004791;28;4045;-67
2023/05/15 00:51:44;;;;;;;;;;;;;;;21.81;43.94;100693.06;5012499;28;4137;-67
2023/05/15 00:54:10;;;;;;;;;;;;;;;21.82;43.75;100694.53;5007604;28;4207;-67
2023/05/15 00:56:36;;;;;;;;;;;;;;;21.81;43.85;100687.31;5004266;28;4127;-67
2023/05/15 00:59:03;;;;;;;;;;;;;;;21.80;43.67;100680.06;5005314;28;4180;-67
2023/05/15 01:01:33;;;;;;;;;;;;;;;21.80;43.92;100685.81;5005859;28;4121;-67
2023/05/15 01:04:01;;;;;;;;;;;;;;;21.80;43.70;100691.59;4980808;28;4455;-67
2023/05/15 01:06:31;;;;;;;;;;;;;;;21.79;43.68;100684.34;4985542;28;4031;-67
2023/05/15 01:09:00;;;;;;;;;;;;;;;21.79;43.54;100687.25;5002602;28;4262;-67
2023/05/15 01:11:34;;;;;;;;;;;;;;;21.79;43.94;100675.72;5007346;28;4174;-67
2023/05/15 01:14:02;;;;;;;;;;;;;;;21.79;43.91;100681.47;5022044;28;5444;-67
2023/05/15 01:16:28;;;;;;;;;;;;;;;21.77;44.01;100676.34;5040066;28;3986;-67
2023/05/15 01:18:54;;;;;;;;;;;;;;;21.78;43.76;100677.09;4994955;28;4195;-67
2023/05/15 01:21:36;;;;;;;;;;;;;;;21.78;43.66;100674.22;5021968;28;4340;-67
2023/05/15 01:24:18;;;;;;;;;;;;;;;21.76;43.90;100669.09;5002478;28;4543;-67
2023/05/15 01:27:03;;;;;;;;;;;;;;;21.75;44.02;100662.59;5001920;28;4000;-67
2023/05/15 01:29:34;;;;;;;;;;;;;;;21.75;43.79;100670.53;5011680;28;4241;-67
2023/05/15 01:32:05;;;;;;;;;;;;;;;21.75;44.02;100665.50;5001523;28;4225;-67
2023/05/15 01:34:55;;;;;;;;;;;;;;;21.74;43.95;100664.03;4989578;28;4156;-67
2023/05/15 01:37:23;;;;;;;;;;;;;;;21.74;43.70;100666.91;4995646;28;4009;-67
2023/05/15 01:39:51;;;;;;;;;;;;;;;21.73;43.94;100665.41;5001770;28;4172;-67
2023/05/15 01:42:17;;;;;;;;;;;;;;;21.73;43.78;100665.41;5003292;28;4137;-67
2023/05/15 01:44:45;;;;;;;;;;;;;;;21.73;43.65;100664.66;5007228;28;4478;-67
2023/05/15 01:47:12;;;;;;;;;;;;;;;21.73;43.80;100658.91;5004230;28;4052;-67
2023/05/15 01:49:39;;;;;;;;;;;;;;;21.72;43.79;100652.41;5005852;28;4122;-67
2023/05/15 01:52:07;;;;;;;;;;;;;;;21.71;43.86;100650.91;4993757;28;4151;-67
2023/05/15 01:54:33;;;;;;;;;;;;;;;21.70;44.22;100652.34;5004209;28;4050;-67
2023/05/15 01:57:00;;;;;;;;;;;;;;;21.70;44.02;100643.69;5013867;28;4131;-67
2023/05/15 01:59:26;;;;;;;;;;;;;;;21.71;43.83;100638.66;5004826;28;4063;-67
2023/05/15 02:01:53;;;;;;;;;;;;;;;21.70;44.02;100637.94;5001687;28;4131;-67
2023/05/15 02:04:20;;;;;;;;;;;;;;;21.71;43.89;100635.78;5004096;28;4065;-67
2023/05/15 02:06:46;;;;;;;;;;;;;;;21.70;43.66;100632.16;4988681;28;4159;-67
2023/05/15 02:09:12;;;;;;;;;;;;;;;21.70;44.05;100632.16;4990897;28;4002;-67
2023/05/15 02:11:39;;;;;;;;;;;;;;;21.70;43.80;100634.31;5005271;28;4119;-67
2023/05/15 02:14:05;;;;;;;;;;;;;;;21.67;43.69;100636.38;4989462;28;4463;-67
2023/05/15 02:16:32;;;;;;;;;;;;;;;21.67;44.04;100639.25;5003207;28;3923;-67
2023/05/15 02:18:59;;;;;;;;;;;;;;;21.65;43.95;100627.66;5011611;28;5386;-67
2023/05/15 02:21:25;;;;;;;;;;;;;;;21.65;43.90;100630.53;5011511;28;4141;-72
2023/05/15 02:23:51;;;;;;;;;;;;;;;21.66;43.93;100631.28;5010970;28;4512;-66
2023/05/15 02:26:28;;;;;;;;;;;;;;;21.65;43.74;100624.78;5002808;28;4432;-68
2023/05/15 02:28:59;;;;;;;;;;;;;;;21.64;43.92;100623.28;5002790;28;4116;-68
2023/05/15 02:31:27;;;;;;;;;;;;;;;21.63;44.11;100627.56;5003143;28;4238;-68
2023/05/15 02:33:58;;;;;;;;;;;;;;;21.62;43.92;100626.09;5004832;28;4087;-68
2023/05/15 02:36:27;;;;;;;;;;;;;;;21.63;43.91;100616.06;5001770;28;4445;-68
2023/05/15 02:38:53;;;;;;;;;;;;;;;21.62;44.39;100614.56;5001876;28;4025;-68
2023/05/15 02:41:20;;;;;;;;;;;;;;;21.63;44.07;100604.53;4998151;28;4042;-68
2023/05/15 02:43:47;;;;;;;;;;;;;;;21.61;44.15;100601.56;5007544;28;4493;-68
2023/05/15 02:46:14;;;;;;;;;;;;;;;21.61;44.18;100607.34;5005701;28;4344;-68
2023/05/15 02:48:41;;;;;;;;;;;;;;;21.61;44.00;100597.94;5005043;28;4092;-68
2023/05/15 02:51:07;;;;;;;;;;;;;;;21.60;44.18;100602.22;5004195;28;5020;-68
2023/05/15 02:53:37;;;;;;;;;;;;;;;21.59;44.13;100604.38;5008322;28;4397;-67
2023/05/15 02:56:04;;;;;;;;;;;;;;;21.59;43.90;100592.84;5004143;28;4154;-68
2023/05/15 02:58:30;;;;;;;;;;;;;;;21.58;44.15;100591.38;5003420;28;4508;-68
2023/05/15 03:00:57;;;;;;;;;;;;;;;21.58;44.16;100597.16;5009152;28;4058;-68
2023/05/15 03:03:23;;;;;;;;;;;;;;;21.60;44.15;100591.47;5004081;28;4160;-68
2023/05/15 03:05:50;;;;;;;;;;;;;;;21.58;43.99;100588.50;5004767;28;5168;-68
2023/05/15 03:08:16;;;;;;;;;;;;;;;21.58;44.30;100579.09;5004302;28;4679;-68
2023/05/15 03:10:42;;;;;;;;;;;;;;;21.57;44.07;100583.38;4999853;28;4100;-68
2023/05/15 03:13:09;;;;;;;;;;;;;;;21.57;44.20;100577.63;5006481;28;4267;-68
2023/05/15 03:15:36;;;;;;;;;;;;;;;21.55;44.23;100578.28;5007878;28;4601;-68
2023/05/15 03:18:02;;;;;;;;;;;;;;;21.58;43.89;100579.84;5009484;28;4110;-68
2023/05/15 03:20:29;;;;;;;;;;;;;;;21.57;44.12;100575.47;5014140;28;4227;-68
2023/05/15 03:22:55;;;;;;;;;;;;;;;21.56;44.05;100576.91;5009836;28;4184;-68
2023/05/15 03:25:21;;;;;;;;;;;;;;;21.57;44.38;100572.59;5015442;28;4044;-68
2023/05/15 03:27:48;;;;;;;;;;;;;;;21.56;44.32;100576.91;5010331;28;4087;-68
2023/05/15 03:30:15;;;;;;;;;;;;;;;21.56;44.31;100581.94;5006177;28;3957;-68
2023/05/15 03:32:41;;;;;;;;;;;;;;;21.54;44.18;100574.66;5012553;28;4159;-68
2023/05/15 03:35:08;;;;;;;;;;;;;;;21.54;44.29;100574.66;5010104;28;4387;-68
2023/05/15 03:37:34;;;;;;;;;;;;;;;21.53;44.31;100567.44;5010995;28;4127;-67
2023/05/15 03:40:01;;;;;;;;;;;;;;;21.53;44.00;100573.19;5015693;28;4101;-68
2023/05/15 03:42:28;;;;;;;;;;;;;;;21.56;44.13;100576.16;5008271;28;4404;-68
2023/05/15 03:44:55;;;;;;;;;;;;;;;21.53;44.15;100573.19;5008246;28;4127;-68
2023/05/15 03:47:21;;;;;;;;;;;;;;;21.54;44.28;100568.16;5016875;28;4052;-68
2023/05/15 03:49:51;;;;;;;;;;;;;;;21.53;44.11;100573.19;5008100;28;4139;-68
2023/05/15 03:52:17;;;;;;;;;;;;;;;21.53;44.14;100570.31;5014321;28;4099;-68
2023/05/15 03:54:43;;;;;;;;;;;;;;;21.51;44.17;100575.28;5008683;28;4170;-68
2023/05/15 03:57:10;;;;;;;;;;;;;;;21.51;44.35;100566.63;5012629;28;4194;-68
2023/05/15 03:59:37;;;;;;;;;;;;;;;21.51;44.00;100563.75;5007308;28;5324;-68
2023/05/15 04:02:04;;;;;;;;;;;;;;;21.53;44.12;100572.44;5007529;28;4237;-68
2023/05/15 04:04:31;;;;;;;;;;;;;;;21.52;44.30;100565.94;5007953;28;3973;-68
2023/05/15 04:06:57;;;;;;;;;;;;;;;21.50;44.17;100563.00;5014770;28;4556;-68
2023/05/15 04:09:23;;;;;;;;;;;;;;;21.50;44.16;100568.75;5011313;28;4317;-68
2023/05/15 04:11:50;;;;;;;;;;;;;;;21.51;44.11;100572.41;5002875;28;4060;-68
2023/05/15 04:14:16;;;;;;;;;;;;;;;21.50;44.20;100563.00;5009400;28;4048;-69
2023/05/15 04:16:42;;;;;;;;;;;;;;;21.49;44.38;100566.56;5007743;28;4399;-68
2023/05/15 04:19:09;;;;;;;;;;;;;;;21.49;44.37;100566.56;5007479;28;4065;-68
2023/05/15 04:21:35;;;;;;;;;;;;;;;21.49;44.09;100560.78;5007637;28;4063;-67
2023/05/15 04:24:02;;;;;;;;;;;;;;;21.49;44.19;100566.56;5009873;28;3939;-68
2023/05/15 04:26:28;;;;;;;;;;;;;;;21.49;44.31;100563.66;5007559;28;4230;-68
2023/05/15 04:28:56;;;;;;;;;;;;;;;21.47;44.45;100563.59;5001051;28;4345;-68
2023/05/15 04:31:30;;;;;;;;;;;;;;;21.48;44.39;100559.28;5004239;28;4028;-68
2023/05/15 04:33:57;;;;;;;;;;;;;;;21.48;44.63;100565.06;5005345;28;4059;-67
2023/05/15 04:36:23;;;;;;;;;;;;;;;21.47;44.31;100554.94;5007919;28;4357;-68
2023/05/15 04:38:50;;;;;;;;;;;;;;;21.48;44.24;100565.06;5006181;28;4100;-68
2023/05/15 04:41:17;;;;;;;;;;;;;;;21.48;44.24;100559.28;5006197;28;4224;-68
2023/05/15 04:43:43;;;;;;;;;;;;;;;21.47;44.44;100557.84;5008766;28;4000;-68
2023/05/15 04:46:10;;;;;;;;;;;;;;;21.46;44.50;100551.34;5003898;28;4416;-68
2023/05/15 04:48:36;;;;;;;;;;;;;;;21.45;44.53;100543.34;5006133;28;4085;-68
2023/05/15 04:51:03;;;;;;;;;;;;;;;21.45;44.19;100554.88;5002939;28;4219;-68
2023/05/15 04:53:29;;;;;;;;;;;;;;;21.45;44.56;100543.34;5006741;28;3936;-68
2023/05/15 04:55:55;;;;;;;;;;;;;;;21.44;44.45;100536.84;5005226;28;4401;-69
2023/05/15 04:58:22;;;;;;;;;;;;;;;21.44;44.46;100536.09;5008944;28;4392;-68
2023/05/15 05:00:48;;;;;;;;;;;;;;;21.45;44.30;100540.47;5006285;28;4092;-68
2023/05/15 05:03:15;;;;;;;;;;;;;;;21.45;44.53;100531.81;5004219;28;4106;-68
2023/05/15 05:05:41;;;;;;;;;;;;;;;21.45;44.52;100538.31;5003694;28;4132;-68
2023/05/15 05:08:07;;;;;;;;;;;;;;;21.46;44.35;100539.06;5008495;28;3917;-68
2023/05/15 05:10:34;;;;;;;;;;;;;;;21.44;44.46;100539.75;5005470;28;4213;-67
2023/05/15 05:13:00;;;;;;;;;;;;;;;21.46;44.38;100544.81;5003643;28;4050;-68
2023/05/15 05:15:26;;;;;;;;;;;;;;;21.44;44.32;100533.22;5004403;28;4356;-71
2023/05/15 05:17:53;;;;;;;;;;;;;;;21.50;44.34;100533.44;4997574;28;4048;-74
2023/05/15 05:20:20;;;;;;;;;;;;;;;21.48;44.50;100536.25;4997294;28;4609;-66
2023/05/15 05:22:46;;;;;;;;;;;;;;;21.22;44.44;100533.84;4999654;28;4870;-75
2023/05/15 05:25:12;;;;;;;;;;;;;;;21.14;44.41;100533.53;4992592;28;4195;-73
2023/05/15 05:27:39;;;;;;;;;;;;;;;21.14;44.34;100530.66;4995007;28;4456;-72
2023/05/15 05:30:05;;;;;;;;;;;;;;;21.17;44.18;100526.47;4998088;28;4154;-72
2023/05/15 05:32:32;;;;;;;;;;;;;;;21.22;44.13;100533.84;5001781;28;4014;-72
2023/05/15 05:34:58;;;;;;;;;;;;;;;21.22;44.35;100528.09;5001904;28;4182;-72
2023/05/15 05:37:25;;;;;;;;;;;;;;;21.22;44.36;100522.31;5005498;28;3960;-72
2023/05/15 05:39:51;;;;;;;;;;;;;;;21.23;44.29;100525.94;5012912;28;4131;-72
2023/05/15 05:42:18;;;;;;;;;;;;;;;21.23;44.34;100523.78;4998376;28;4177;-72
2023/05/15 05:44:44;;;;;;;;;;;;;;;21.24;44.20;100525.28;5010547;28;4717;-72
2023/05/15 05:47:11;;;;;;;;;;;;;;;21.25;44.00;100529.63;5004036;28;3980;-71
2023/05/15 05:49:38;;;;;;;;;;;;;;;21.25;44.28;100526.75;5004808;28;4328;-71
2023/05/15 05:52:08;;;;;;;;;;;;;;;21.19;45.89;100529.41;4999637;28;4685;-69
2023/05/15 05:54:34;;;;;;;;;;;;;;;21.37;47.61;100525.72;5005832;28;4061;-69
2023/05/15 05:57:00;;;;;;;;;;;;;;;21.33;47.22;100509.78;5000382;28;4333;-69
2023/05/15 05:59:28;;;;;;;;;;;;;;;21.44;46.23;100513.81;5002006;28;4090;-69
2023/05/15 06:01:54;;;;;;;;;;;;;;;21.33;45.56;100503.28;5011157;28;4213;-69
2023/05/15 06:04:20;;;;;;;;;;;;;;;21.45;45.22;100509.50;4994992;28;4128;-69
2023/05/15 06:06:47;;;;;;;;;;;;;;;21.48;44.58;100501.69;5004763;28;4145;-69
2023/05/15 06:09:13;;;;;;;;;;;;;;;21.01;45.34;100499.94;5003644;28;4837;-68
2023/05/15 06:11:40;;;;;;;;;;;;;;;20.77;45.99;100485.34;5004362;28;4358;-67
2023/05/15 06:14:07;;;;;;;;;;;;;;;20.83;45.21;100492.06;5004133;28;4041;-70
2023/05/15 06:16:33;;;;;;;;;;;;;;;20.68;46.26;100478.53;5007308;28;4054;-72
2023/05/15 06:19:00;;;;;;;;;;;;;;;20.82;46.05;100481.97;5005264;28;4128;-69
2023/05/15 06:21:26;;;;;;;;;;;;;;;20.53;45.42;100480.09;5007712;28;5252;-70
2023/05/15 06:23:52;;;;;;;;;;;;;;;20.73;45.46;100485.94;5006730;28;4168;-69
2023/05/15 06:26:20;;;;;;;;;;;;;;;20.83;45.58;100474.81;5005778;28;4254;-67
2023/05/15 06:28:47;;;;;;;;;;;;;;;20.77;45.30;100480.31;5010775;28;4465;-70
2023/05/15 06:31:13;;;;;;;;;;;;;;;20.51;45.77;100472.13;5007569;28;4064;-65
2023/05/15 06:33:40;;;;;;;;;;;;;;;20.74;45.47;100470.16;5007256;28;4628;-67
2023/05/15 06:36:06;;;;;;;;;;;;;;;20.54;45.96;100475.06;5009364;28;4146;-69
2023/05/15 06:38:32;;;;;;;;;;;;;;;20.18;46.15;100475.84;5007739;28;4139;-68
2023/05/15 06:40:59;;;;;;;;;;;;;;;20.28;44.88;100484.13;5005280;28;4301;-68
2023/05/15 06:43:25;;;;;;;;;;;;;;;20.44;44.83;100470.41;5005814;28;4763;-68
2023/05/15 06:45:52;;;;;;;;;;;;;;;20.66;44.34;100464.81;5004225;28;4509;-66
2023/05/15 06:48:18;;;;;;;;;;;;;;;20.65;44.04;100465.47;5008687;28;4251;-66
2023/05/15 06:50:44;;;;;;;;;;;;;;;20.81;43.91;100459.59;5007350;28;4531;-66
2023/05/15 06:53:11;;;;;;;;;;;;;;;20.58;43.83;100453.00;5003453;28;3967;-65
2023/05/15 06:55:39;;;;;;;;;;;;;;;20.99;43.46;100453.81;5007695;28;4389;-65
2023/05/15 06:58:06;;;;;;;;;;;;;;;21.00;43.48;100449.50;5002502;28;4597;-65
2023/05/15 07:00:32;;;;;;;;;;;;;;;21.30;43.39;100441.25;4999851;28;4542;-65
2023/05/15 07:02:58;;;;;;;;;;;;;;;20.79;43.42;100456.66;4999767;28;4153;-68
2023/05/15 07:05:25;;;;;;;;;;;;;;;20.99;43.56;100448.06;4999029;28;4359;-66
2023/05/15 07:07:52;;;;;;;;;;;;;;;20.92;43.41;100439.19;5000799;28;4373;-67
2023/05/15 07:10:18;;;;;;;;;;;;;;;20.67;43.67;100449.03;5003601;28;4522;-65
2023/05/15 07:12:45;;;;;;;;;;;;;;;20.41;43.45;100450.84;5004987;28;4154;-66
2023/05/15 07:15:11;;;;;;;;;;;;;;;20.63;43.92;100443.13;5005015;28;4183;-68
2023/05/15 07:17:37;;;;;;;;;;;;;;;20.78;43.71;100441.53;5003413;28;5663;-68
2023/05/15 07:20:04;;;;;;;;;;;;;;;20.67;43.71;100436.78;5005262;28;4096;-69
2023/05/15 07:22:31;;;;;;;;;;;;;;;20.99;43.22;100436.53;5005512;28;4134;-69
2023/05/15 07:25:01;;;;;;;;;;;;;;;21.11;43.14;100431.94;5003325;28;4190;-68
2023/05/15 07:27:28;;;;;;;;;;;;;;;20.58;42.83;100429.97;5011180;28;3951;-68
2023/05/15 07:29:54;;;;;;;;;;;;;;;20.47;42.82;100431.69;5003507;28;4183;-69
2023/05/15 07:32:20;;;;;;;;;;;;;;;20.63;42.27;100422.25;5004240;28;4210;-68
2023/05/15 07:34:47;;;;;;;;;;;;;;;20.96;42.18;100420.56;5011730;28;4430;-69
2023/05/15 07:37:13;;;;;;;;;;;;;;;20.75;42.14;100434.19;5003344;28;4045;-65
2023/05/15 07:39:42;;;;;;;;;;;;;;;20.51;42.73;100426.09;4999705;28;4358;-65
2023/05/15 07:42:08;;;;;;;;;;;;;;;20.43;42.72;100417.16;5000622;28;4015;-65
2023/05/15 07:44:35;;;;;;;;;;;;;;;20.57;42.97;100419.13;5004912;28;4059;-65
2023/05/15 07:47:01;;;;;;;;;;;;;;;20.58;42.62;100412.72;5004351;28;4138;-65
2023/05/15 07:49:27;;;;;;;;;;;;;;;20.60;42.57;100412.06;4997660;28;4187;-65
2023/05/15 07:51:54;;;;;;;;;;;;;;;20.51;42.45;100414.59;4997729;28;4481;-65
2023/05/15 07:54:20;;;;;;;;;;;;;;;20.63;41.96;100413.63;4992040;28;4285;-65
2023/05/15 07:56:47;;;;;;;;;;;;;;;20.68;42.01;100418.13;5005179;28;4167;-65
2023/05/15 07:59:13;;;;;;;;;;;;;;;20.59;41.72;100410.56;5003452;28;4116;-65
2023/05/15 08:01:39;;;;;;;;;;;;;;;20.48;41.94;100403.69;5003907;28;4706;-65
2023/05/15 08:04:06;;;;;;;;;;;;;;;20.62;41.73;100412.88;5004649;28;4404;-65
2023/05/15 08:06:33;;;;;;;;;;;;;;;20.57;41.66;100407.63;5008095;28;4477;-65
2023/05/15 08:08:59;;;;;;;;;;;;;;;20.56;41.47;100397.50;5004062;28;4304;-65
2023/05/15 08:11:26;;;;;;;;;;;;;;;20.75;41.55;100396.06;5005790;28;4259;-65
2023/05/15 08:13:52;;;;;;;;;;;;;;;20.74;41.22;100403.22;5002581;28;4154;-65
2023/05/15 08:16:18;;;;;;;;;;;;;;;20.75;41.51;100388.16;5007935;28;3989;-65
2023/05/15 08:18:45;;;;;;;;;;;;;;;20.72;41.75;100392.38;5009206;28;4319;-65
2023/05/15 08:21:11;;;;;;;;;;;;;;;20.78;41.35;100383.97;5006066;28;4476;-65
2023/05/15 08:23:38;;;;;;;;;;;;;;;20.99;41.16;100382.59;5005870;28;4192;-68
2023/05/15 08:26:04;;;;;;;;;;;;;;;21.38;41.20;100374.56;5003081;28;4191;-66
2023/05/15 08:28:31;;;;;;;;;;;;;;;21.50;41.06;100377.88;5004835;28;4372;-67
2023/05/15 08:30:57;;;;;;;;;;;;;;;21.55;41.30;100382.38;5007133;28;5036;-67
2023/05/15 08:33:23;;;;;;;;;;;;;;;21.65;41.37;100385.63;5005387;28;4126;-68
2023/05/15 08:35:50;;;;;;;;;;;;;;;21.72;41.07;100378.66;5006812;28;4017;-67
2023/05/15 08:38:17;;;;;;;;;;;;;;;21.78;41.23;100377.34;4988719;28;4253;-66
2023/05/15 08:40:45;;;;;;;;;;;;;;;21.84;41.14;100374.69;4982197;28;4701;-74
2023/05/15 08:43:14;;;;;;;;;;;;;;;22.00;40.98;100372.31;4990412;28;4046;-74
2023/05/15 08:45:40;;;;;;;;;;;;;;;22.08;41.01;100366.06;5009602;28;4153;-75
2023/05/15 08:48:10;;;;;;;;;;;;;;;22.12;40.96;100363.31;5009577;28;4119;-74
2023/05/15 08:50:37;;;;;;;;;;;;;;;22.24;41.47;100351.44;5004835;28;4398;-69
2023/05/15 08:53:03;;;;;;;;;;;;;;;22.25;40.91;100353.66;5006101;28;4542;-70
2023/05/15 08:55:30;;;;;;;;;;;;;;;22.29;40.94;100359.56;5012152;28;3996;-70
2023/05/15 08:57:56;;;;;;;;;;;;;;;22.17;41.33;100362.78;5004632;28;4065;-73
2023/05/15 09:00:22;;;;;;;;;;;;;;;22.18;41.61;100360.63;5010546;28;4082;-74
2023/05/15 09:02:49;;;;;;;;;;;;;;;22.29;41.37;100358.84;5009314;28;4122;-73
2023/05/15 09:05:16;;;;;;;;;;;;;;;22.31;41.73;100356.00;5007104;28;4132;-69
2023/05/15 09:07:43;;;;;;;;;;;;;;;22.50;41.62;100360.91;5006603;28;4520;-70
2023/05/15 09:10:10;;;;;;;;;;;;;;;22.56;41.51;100352.44;5008238;28;4623;-70
2023/05/15 09:12:38;;;;;;;;;;;;;;;22.57;41.33;100359.66;5008014;28;4355;-69
2023/05/15 09:15:11;;;;;;;;;;;;;;;22.21;41.53;100352.78;5005241;28;4691;-68
2023/05/15 09:17:38;;;;;;;;;;;;;;;22.13;42.15;100353.28;5004525;28;4510;-73
2023/05/15 09:20:04;;;;;;;;;;;;;;;22.20;42.00;100359.97;5003076;28;4274;-74
2023/05/15 09:22:34;;;;;;;;;;;;;;;22.22;42.25;100354.25;5007167;28;4285;-69
2023/05/15 09:25:02;;;;;;;;;;;;;;;22.47;42.36;100350.72;5004606;28;3942;-68
2023/05/15 09:27:28;;;;;;;;;;;;;;;22.56;41.85;100343.78;5011673;28;4051;-71
2023/05/15 09:29:56;;;;;;;;;;;;;;;22.57;41.82;100338.75;5009214;28;4056;-78
2023/05/15 09:32:24;;;;;;;;;;;;;;;22.61;41.82;100341.75;5012930;28;4948;-71
2023/05/15 09:34:50;;;;;;;;;;;;;;;22.59;41.77;100347.47;5009009;28;4135;-70
2023/05/15 09:37:30;;;;;;;;;;;;;;;22.42;42.01;100345.50;5011341;28;4098;-68
2023/05/15 09:40:05;;;;;;;;;;;;;;;22.28;42.43;100346.53;5004846;28;4307;-69
2023/05/15 09:42:33;;;;;;;;;;;;;;;22.23;42.67;100341.34;5008842;28;4256;-74
2023/05/15 09:44:59;;;;;;;;;;;;;;;22.28;42.65;100340.03;5009200;28;4339;-79
2023/05/15 09:47:25;;;;;;;;;;;;;;;22.40;42.91;100337.50;5011948;28;4126;-71
2023/05/15 09:49:52;;;;;;;;;;;;;;;22.40;42.96;100339.66;5007090;28;3959;-70
2023/05/15 09:52:19;;;;;;;;;;;;;;;22.50;42.95;100337.81;5007795;28;4105;-70
2023/05/15 09:54:48;;;;;;;;;;;;;;;22.59;43.20;100335.91;5012158;28;4305;-68
2023/05/15 09:57:19;;;;;;;;;;;;;;;22.75;42.73;100327.00;5008677;28;4459;-68
2023/05/15 09:59:46;;;;;;;;;;;;;;;22.73;42.81;100329.81;5012324;28;4241;-69
2023/05/15 10:02:30;;;;;;;;;;;;;;;22.27;42.48;100329.94;5006935;28;4059;-74
2023/05/15 10:04:56;;;;;;;;;;;;;;;22.14;43.18;100323.75;5004376;28;4141;-67
2023/05/15 10:07:26;;;;;;;;;;;;;;;22.38;43.51;100325.94;5005859;28;4419;-75
2023/05/15 10:09:53;;;;;;;;;;;;;;;22.24;43.39;100323.38;5011971;28;4495;-76
2023/05/15 10:12:19;;;;;;;;;;;;;;;22.48;43.47;100323.34;5006814;28;4136;-68
2023/05/15 10:14:45;;;;;;;;;;;;;;;22.67;43.32;100318.09;5005396;28;4250;-71
2023/05/15 10:17:12;;;;;;;;;;;;;;;22.79;43.09;100319.19;5005371;28;3990;-73
2023/05/15 10:19:38;;;;;;;;;;;;;;;22.80;42.79;100317.75;5008153;28;4028;-72
2023/05/15 10:22:22;;;;;;;;;;;;;;;22.85;42.59;100318.59;5008705;28;4052;-71
2023/05/15 10:24:50;;;;;;;;;;;;;;;22.86;42.41;100313.56;5014407;28;4076;-69
2023/05/15 10:27:16;;;;;;;;;;;;;;;22.67;43.11;100320.97;5007184;28;4056;-73
2023/05/15 10:29:43;;;;;;;;;;;;;;;22.53;43.32;100313.38;5007526;28;4179;-73
2023/05/15 10:32:10;;;;;;;;;;;;;;;22.56;43.41;100306.28;5005465;28;4392;-72
2023/05/15 10:34:36;;;;;;;;;;;;;;;22.57;43.38;100315.66;5004383;28;4210;-73
2023/05/15 10:37:02;;;;;;;;;;;;;;;22.75;43.13;100310.41;5006284;28;4541;-72
2023/05/15 10:39:29;;;;;;;;;;;;;;;22.88;42.70;100305.69;5007916;28;4206;-74
2023/05/15 10:41:55;;;;;;;;;;;;;;;22.68;42.91;100300.09;5007896;28;4156;-72
2023/05/15 10:44:22;;;;;;;;;;;;;;;22.60;43.53;100302.75;5007594;28;4079;-70
2023/05/15 10:46:48;;;;;;;;;;;;;;;22.53;43.30;100301.84;5003646;28;4104;-70
2023/05/15 10:49:15;;;;;;;;;;;;;;;22.68;43.38;100299.38;5008838;28;4061;-74
2023/05/15 10:51:41;;;;;;;;;;;;;;;22.94;42.92;100302.97;5005429;28;4538;-77
2023/05/15 10:54:08;;;;;;;;;;;;;;;22.99;42.79;100287.25;5003537;28;4122;-73
2023/05/15 10:56:36;;;;;;;;;;;;;;;22.99;42.49;100290.13;4999201;28;4555;-71
2023/05/15 10:59:06;;;;;;;;;;;;;;;23.00;42.60;100282.94;5001748;28;4572;-74
2023/05/15 11:01:33;;;;;;;;;;;;;;;22.78;42.81;100285.22;5001620;28;4398;-66
2023/05/15 11:04:07;;;;;;;;;;;;;;;22.75;43.28;100277.91;5000826;28;5138;-68
2023/05/15 11:06:34;;;;;;;;;;;;;;;22.74;43.59;100273.53;5004797;28;4217;-66
2023/05/15 11:09:19;;;;;;;;;;;;;;;22.70;43.79;100274.19;4999821;28;4066;-66
2023/05/15 11:11:51;;;;;;;;;;;;;;;22.65;43.73;100261.03;4996501;28;4229;-65
2023/05/15 11:14:17;;;;;;;;;;;;;;;22.89;43.71;100260.97;4999518;28;4504;-66
2023/05/15 11:16:53;;;;;;;;;;;;;;;23.00;43.51;100259.84;4996968;28;4178;-67
2023/05/15 11:19:31;;;;;;;;;;;;;;;23.09;43.41;100257.16;5000749;28;4325;-66
2023/05/15 11:22:18;;;;;;;;;;;;;;;23.08;43.29;100252.81;4999818;28;4405;-65
2023/05/15 11:25:00;;;;;;;;;;;;;;;23.02;42.35;100255.53;5001714;28;4092;-64
2023/05/15 11:27:37;;;;;;;;;;;;;;;22.97;42.05;100252.50;5003252;28;4159;-66
2023/05/15 11:30:06;;;;;;;;;;;;;;;22.94;42.23;100251.00;4999051;28;4649;-66
2023/05/15 11:32:51;;;;;;;;;;;;;;;22.94;43.09;100236.56;5003178;28;4009;-65
2023/05/15 11:35:19;;;;;;;;;;;;;;;23.07;42.91;100234.03;5003450;28;4486;-65
2023/05/15 11:37:46;;;;;;;;;;;;;;;23.08;42.28;100241.25;5006091;28;4509;-66
2023/05/15 11:40:13;;;;;;;;;;;;;;;22.86;43.11;100233.47;5002194;28;4113;-66
2023/05/15 11:42:40;;;;;;;;;;;;;;;22.76;43.13;100238.97;5005140;28;4204;-65
2023/05/15 11:45:08;;;;;;;;;;;;;;;22.96;43.00;100233.00;5002358;28;4417;-69
2023/05/15 11:47:35;;;;;;;;;;;;;;;23.06;42.64;100235.44;5003412;28;4823;-66
2023/05/15 11:50:03;;;;;;;;;;;;;;;23.10;43.25;100235.53;5001439;28;4133;-66
2023/05/15 11:52:29;;;;;;;;;;;;;;;23.16;43.22;100230.66;5004678;28;4313;-68
2023/05/15 11:54:56;;;;;;;;;;;;;;;23.13;42.80;100222.63;5005020;28;4265;-68
2023/05/15 11:57:22;;;;;;;;;;;;;;;23.07;43.02;100228.25;5003891;28;4203;-68
2023/05/15 11:59:52;;;;;;;;;;;;;;;23.04;43.36;100218.06;5002473;28;4159;-69
2023/05/15 12:02:18;;;;;;;;;;;;;;;23.13;43.23;100219.72;5003998;28;4180;-67
2023/05/15 12:04:47;;;;;;;;;;;;;;;22.89;43.45;100214.06;4999653;28;4085;-66
2023/05/15 12:07:13;;;;;;;;;;;;;;;22.65;43.94;100214.13;4999946;28;4170;-70
2023/05/15 12:09:40;;;;;;;;;;;;;;;22.74;44.13;100215.81;5006137;28;4336;-69
2023/05/15 12:12:08;;;;;;;;;;;;;;;22.77;44.06;100214.47;5002375;28;3909;-72
2023/05/15 12:14:34;;;;;;;;;;;;;;;22.75;43.75;100209.38;5014112;28;4222;-70
2023/05/15 12:17:02;;;;;;;;;;;;;;;22.73;43.91;100212.22;5009393;28;4206;-71
2023/05/15 12:19:29;;;;;;;;;;;;;;;22.76;44.06;100213.72;5006694;28;4712;-70
2023/05/15 12:21:56;;;;;;;;;;;;;;;22.87;43.96;100206.06;5002452;28;4598;-65
2023/05/15 12:24:22;;;;;;;;;;;;;;;22.81;43.95;100203.00;5002895;28;4137;-65
2023/05/15 12:26:48;;;;;;;;;;;;;;;22.76;43.85;100201.44;5012336;28;4128;-67
2023/05/15 12:29:15;;;;;;;;;;;;;;;22.70;44.03;100204.94;5009898;28;4096;-67
2023/05/15 12:31:41;;;;;;;;;;;;;;;22.67;44.03;100206.25;5005999;28;4950;-66
2023/05/15 12:34:08;;;;;;;;;;;;;;;22.67;44.15;100205.53;5005124;28;4043;-67
2023/05/15 12:36:34;;;;;;;;;;;;;;;22.59;44.30;100201.03;5003651;28;4551;-70
2023/05/15 12:39:05;;;;;;;;;;;;;;;22.44;44.23;100193.41;5006791;28;4115;-66
2023/05/15 12:41:31;;;;;;;;;;;;;;;22.28;40.37;100192.94;5012398;28;4135;-67
2023/05/15 12:43:57;;;;;;;;;;;;;;;22.72;40.31;100198.44;5005468;28;4569;-72
2023/05/15 12:46:24;;;;;;;;;;;;;;;22.85;41.49;100194.47;5005493;28;4179;-71
2023/05/15 12:48:50;;;;;;;;;;;;;;;22.93;41.94;100183.13;5006294;28;5109;-70